Time;durP1;ratioP1;P1;durP2;ratioP2;P2;SDS_P1;SDS_P2;PMS_P1;PMS_P2;Temp;Humidity;BMP_temperature;BMP_pressure;BME280_temperature;BME280_humidity;BME280_pressure;Samples;Min_cycle;Max_cycle;Signal;HPM_P1;HPM_P2
2021/10/08 00:00:59;;;;;;;20.85;3.45;;;6.20;99.90;;;;;;5037467;28;20025;-68
2021/10/08 00:03:27;;;;;;;24.45;4.00;;;6.10;99.90;;;;;;5036902;28;20071;-68
2021/10/08 00:05:54;;;;;;;31.17;3.67;;;6.10;99.90;;;;;;5036809;28;20104;-68
2021/10/08 00:08:22;;;;;;;20.55;4.15;;;6.10;99.90;;;;;;5036276;28;20018;-68
2021/10/08 00:10:49;;;;;;;12.07;3.83;;;6.10;99.90;;;;;;5036755;28;20033;-68
2021/10/08 00:13:17;;;;;;;19.70;4.10;;;6.00;99.90;;;;;;5036887;28;20053;-68
2021/10/08 00:15:44;;;;;;;16.27;4.15;;;6.00;99.90;;;;;;5036717;28;20025;-67
2021/10/08 00:18:11;;;;;;;13.73;3.60;;;6.00;99.90;;;;;;5036091;28;20029;-68
2021/10/08 00:20:39;;;;;;;18.67;3.40;;;6.00;99.90;;;;;;5036670;28;20596;-67
2021/10/08 00:23:07;;;;;;;10.38;3.42;;;6.00;99.90;;;;;;5036453;28;20425;-68
2021/10/08 00:25:39;;;;;;;38.95;6.00;;;6.00;99.90;;;;;;5037462;28;20028;-68
2021/10/08 00:28:07;;;;;;;18.15;3.33;;;5.90;99.90;;;;;;5036402;28;20036;-67
2021/10/08 00:30:35;;;;;;;28.73;4.93;;;5.90;99.90;;;;;;5019442;28;20035;-68
2021/10/08 00:33:02;;;;;;;38.30;5.55;;;5.90;99.90;;;;;;5037554;28;20103;-68
2021/10/08 00:35:30;;;;;;;27.55;4.10;;;5.90;99.90;;;;;;5019616;28;20365;-68
2021/10/08 00:37:57;;;;;;;13.60;3.67;;;5.90;99.90;;;;;;5036938;28;20426;-68
2021/10/08 00:40:25;;;;;;;23.70;4.50;;;5.80;99.90;;;;;;5037379;28;20033;-68
2021/10/08 00:42:52;;;;;;;15.68;4.20;;;5.80;99.90;;;;;;5037418;28;20025;-68
2021/10/08 00:45:20;;;;;;;22.92;3.88;;;5.80;99.90;;;;;;5018367;28;20116;-68
2021/10/08 00:48:05;;;;;;;15.65;4.10;;;5.80;99.90;;;;;;5036418;28;20049;-68
2021/10/08 00:50:36;;;;;;;11.50;3.80;;;5.80;99.90;;;;;;5035861;28;20018;-68
2021/10/08 00:53:05;;;;;;;56.13;8.45;;;5.80;99.90;;;;;;5037931;28;20045;-68
2021/10/08 00:55:41;;;;;;;25.98;5.05;;;5.80;99.90;;;;;;5039402;28;20032;-68
2021/10/08 00:58:09;;;;;;;26.65;5.28;;;5.90;99.90;;;;;;5039957;28;20083;-68
2021/10/08 01:00:41;;;;;;;27.92;4.68;;;5.90;99.90;;;;;;5039280;28;20049;-68
2021/10/08 01:03:09;;;;;;;11.88;4.25;;;5.90;99.90;;;;;;5021570;28;20061;-68
2021/10/08 01:05:37;;;;;;;27.65;4.28;;;5.90;99.90;;;;;;5040494;28;20357;-67
2021/10/08 01:08:06;;;;;;;12.93;4.30;;;5.90;99.90;;;;;;5040650;28;20302;-68
2021/10/08 01:10:34;;;;;;;23.92;5.18;;;5.90;99.90;;;;;;5040076;28;20017;-68
2021/10/08 01:13:01;;;;;;;35.00;6.07;;;6.00;99.90;;;;;;5040442;28;20070;-68
2021/10/08 01:15:29;;;;;;;14.35;4.60;;;6.00;99.90;;;;;;5040565;28;20186;-68
2021/10/08 01:17:56;;;;;;;17.95;4.68;;;6.00;99.90;;;;;;5040066;28;20017;-68
2021/10/08 01:20:24;;;;;;;25.35;4.40;;;6.00;99.90;;;;;;5022306;28;20113;-68
2021/10/08 01:22:57;;;;;;;28.40;4.22;;;6.00;99.90;;;;;;5040311;28;20382;-68
2021/10/08 01:25:27;;;;;;;12.02;3.60;;;5.90;99.90;;;;;;5039527;28;20151;-68
2021/10/08 01:27:55;;;;;;;17.17;3.92;;;5.90;99.90;;;;;;5038725;28;20021;-68
2021/10/08 01:30:24;;;;;;;15.52;4.05;;;5.90;99.90;;;;;;5038793;28;20014;-68
2021/10/08 01:32:52;;;;;;;11.50;3.85;;;5.90;99.90;;;;;;5039269;28;20147;-68
2021/10/08 01:35:20;;;;;;;35.95;5.30;;;5.90;99.90;;;;;;5038703;28;20057;-68
2021/10/08 01:37:48;;;;;;;8.02;2.95;;;5.90;99.90;;;;;;5021955;28;20425;-68
2021/10/08 01:40:17;;;;;;;10.13;3.40;;;5.90;99.90;;;;;;5038858;28;20351;-68
2021/10/08 01:42:45;;;;;;;16.08;3.38;;;5.90;99.90;;;;;;5039094;28;20026;-68
2021/10/08 01:45:15;;;;;;;8.57;3.80;;;5.80;99.90;;;;;;5038484;28;20083;-68
2021/10/08 01:47:42;;;;;;;34.40;5.20;;;5.70;99.90;;;;;;5039265;28;20017;-68
2021/10/08 01:50:10;;;;;;;42.53;3.90;;;5.70;99.90;;;;;;5039607;28;20348;-68
2021/10/08 01:52:38;;;;;;;16.20;4.68;;;5.70;99.90;;;;;;5039922;28;20017;-68
2021/10/08 01:55:06;;;;;;;43.55;5.45;;;5.70;99.90;;;;;;5039785;28;20017;-68
2021/10/08 01:57:34;;;;;;;20.60;3.70;;;5.70;99.90;;;;;;5039862;28;20021;-68
2021/10/08 02:00:01;;;;;;;23.98;4.30;;;5.70;99.90;;;;;;5022262;28;20317;-68
2021/10/08 02:02:28;;;;;;;24.63;3.70;;;5.70;99.90;;;;;;5039450;28;20022;-68
2021/10/08 02:04:56;;;;;;;15.73;3.85;;;5.70;99.90;;;;;;5039339;28;20441;-67
2021/10/08 02:07:25;;;;;;;56.90;7.18;;;5.70;99.90;;;;;;5038734;28;20017;-68
2021/10/08 02:09:53;;;;;;;12.02;4.45;;;5.60;99.90;;;;;;5037968;28;20076;-68
2021/10/08 02:12:20;;;;;;;13.90;5.05;;;5.60;99.90;;;;;;5020459;28;20022;-68
2021/10/08 02:14:47;;;;;;;11.73;4.32;;;5.60;99.90;;;;;;5038494;28;20026;-68
2021/10/08 02:17:15;;;;;;;22.15;5.15;;;5.60;99.90;;;;;;5038479;28;20032;-68
2021/10/08 02:19:43;;;;;;;28.50;4.45;;;5.60;99.90;;;;;;5020185;28;20030;-68
2021/10/08 02:22:11;;;;;;;12.77;4.47;;;5.60;99.90;;;;;;5038351;28;20029;-68
2021/10/08 02:24:38;;;;;;;23.63;5.72;;;5.60;99.90;;;;;;5020128;28;20112;-68
2021/10/08 02:27:05;;;;;;;11.90;4.45;;;5.60;99.90;;;;;;5020173;28;20113;-68
2021/10/08 02:29:32;;;;;;;14.10;3.78;;;5.60;99.90;;;;;;5038154;28;20052;-68
2021/10/08 02:32:00;;;;;;;10.35;4.10;;;5.50;99.90;;;;;;5039211;28;20043;-67
2021/10/08 02:34:27;;;;;;;11.15;4.03;;;5.50;99.90;;;;;;5038425;28;20021;-68
2021/10/08 02:36:54;;;;;;;11.93;4.50;;;5.50;99.90;;;;;;5039004;28;20026;-68
2021/10/08 02:39:22;;;;;;;22.65;4.47;;;5.50;99.90;;;;;;5038431;28;20021;-68
2021/10/08 02:41:49;;;;;;;13.00;3.88;;;5.50;99.90;;;;;;5020859;28;20080;-68
2021/10/08 02:44:17;;;;;;;9.52;4.10;;;5.50;99.90;;;;;;5020717;28;20029;-68
2021/10/08 02:46:44;;;;;;;11.02;4.45;;;5.50;99.90;;;;;;5038480;28;20428;-68
2021/10/08 02:49:12;;;;;;;12.75;4.32;;;5.40;99.90;;;;;;5037857;28;20028;-68
2021/10/08 02:51:41;;;;;;;9.32;3.83;;;5.50;99.90;;;;;;5037226;28;20021;-68
2021/10/08 02:54:09;;;;;;;12.23;3.88;;;5.40;99.90;;;;;;5037147;28;20032;-68
2021/10/08 02:56:37;;;;;;;25.80;4.45;;;5.50;99.90;;;;;;5019775;28;20026;-68
2021/10/08 02:59:05;;;;;;;23.85;5.28;;;5.40;99.90;;;;;;5019556;28;20329;-68
2021/10/08 03:01:32;;;;;;;9.55;3.53;;;5.40;99.90;;;;;;5037659;28;20025;-67
2021/10/08 03:04:00;;;;;;;13.43;3.75;;;5.40;99.90;;;;;;5037442;28;20029;-68
2021/10/08 03:06:28;;;;;;;20.30;4.60;;;5.40;99.90;;;;;;5037615;28;20033;-68
2021/10/08 03:08:56;;;;;;;13.20;3.53;;;5.50;99.90;;;;;;5037011;28;20017;-68
2021/10/08 03:11:27;;;;;;;6.38;3.63;;;5.50;99.90;;;;;;5037229;28;20083;-67
2021/10/08 03:13:54;;;;;;;22.98;4.15;;;5.40;99.90;;;;;;5037830;28;20044;-68
2021/10/08 03:16:23;;;;;;;6.10;3.30;;;5.40;99.90;;;;;;5037927;28;20022;-68
2021/10/08 03:18:51;;;;;;;6.47;3.47;;;5.50;99.90;;;;;;5037952;28;20048;-68
2021/10/08 03:21:20;;;;;;;20.55;4.45;;;5.50;99.90;;;;;;5037973;28;20028;-68
2021/10/08 03:23:47;;;;;;;5.35;3.00;;;5.50;99.90;;;;;;5037601;28;20028;-68
2021/10/08 03:26:14;;;;;;;7.55;3.30;;;5.50;99.90;;;;;;5038293;28;20025;-68
2021/10/08 03:28:41;;;;;;;15.23;3.40;;;5.60;99.90;;;;;;5037691;28;20046;-67
2021/10/08 03:31:09;;;;;;;24.30;4.25;;;5.50;99.90;;;;;;5019604;28;20055;-68
2021/10/08 03:33:36;;;;;;;28.23;4.68;;;5.50;99.90;;;;;;5019018;28;20022;-68
2021/10/08 03:36:04;;;;;;;36.60;4.97;;;5.50;99.90;;;;;;5036577;28;20021;-68
2021/10/08 03:38:32;;;;;;;24.77;4.43;;;5.50;99.90;;;;;;5036425;28;20115;-68
2021/10/08 03:43:30;;;;;;;12.18;3.53;;;5.50;99.90;;;;;;5036430;28;20119;-68
2021/10/08 03:46:06;;;;;;;31.58;4.45;;;5.60;99.90;;;;;;5019092;28;20166;-68
2021/10/08 03:49:01;;;;;;;42.47;4.30;;;5.60;99.90;;;;;;5036350;28;20017;-68
2021/10/08 03:51:30;;;;;;;12.52;3.83;;;5.60;99.90;;;;;;5036516;28;20060;-68
2021/10/08 03:53:58;;;;;;;13.23;3.25;;;5.60;99.90;;;;;;5019613;28;20029;-68
2021/10/08 03:56:27;;;;;;;10.00;3.55;;;5.60;99.90;;;;;;5037847;28;20353;-68
2021/10/08 03:59:00;;;;;;;23.77;4.65;;;5.60;99.90;;;;;;5037286;28;20034;-68
2021/10/08 04:01:27;;;;;;;19.88;4.05;;;5.60;99.90;;;;;;5037416;28;20105;-68
2021/10/08 04:03:55;;;;;;;17.70;3.55;;;5.60;99.90;;;;;;5037606;28;20025;-68
2021/10/08 04:06:22;;;;;;;25.35;3.60;;;5.60;99.90;;;;;;5037208;28;20048;-68
2021/10/08 04:08:50;;;;;;;25.92;3.60;;;5.70;99.90;;;;;;5037722;28;20029;-68
2021/10/08 04:11:18;;;;;;;19.88;3.33;;;5.70;99.90;;;;;;5037356;28;20313;-68
2021/10/08 04:13:46;;;;;;;22.27;4.10;;;5.60;99.90;;;;;;5018856;28;20132;-68
2021/10/08 04:16:13;;;;;;;16.85;3.28;;;5.60;99.90;;;;;;5036742;28;20109;-68
2021/10/08 04:18:41;;;;;;;11.70;3.83;;;5.60;99.90;;;;;;5036078;28;20021;-68
2021/10/08 04:21:09;;;;;;;20.00;3.53;;;5.60;99.90;;;;;;5036309;28;20037;-68
2021/10/08 04:23:37;;;;;;;17.48;3.72;;;5.60;99.90;;;;;;5036107;28;20083;-68
2021/10/08 04:26:05;;;;;;;18.88;2.95;;;5.60;99.90;;;;;;5036949;28;20025;-68
2021/10/08 04:28:33;;;;;;;18.92;2.97;;;5.60;99.90;;;;;;5038351;28;20113;-67
2021/10/08 04:31:00;;;;;;;27.33;4.07;;;5.60;99.90;;;;;;5040408;28;20309;-67
2021/10/08 04:33:28;;;;;;;22.05;3.92;;;5.60;99.90;;;;;;5023085;28;20068;-68
2021/10/08 04:35:59;;;;;;;11.80;3.80;;;5.60;99.90;;;;;;5040719;28;20021;-68
2021/10/08 04:38:29;;;;;;;16.88;3.67;;;5.60;99.90;;;;;;5040681;28;20113;-67
2021/10/08 04:40:57;;;;;;;6.78;3.20;;;5.60;99.90;;;;;;5040874;28;20033;-68
2021/10/08 04:43:24;;;;;;;10.00;3.03;;;5.50;99.90;;;;;;5040597;28;20112;-68
2021/10/08 04:45:51;;;;;;;19.10;3.13;;;5.50;99.90;;;;;;5040837;28;20117;-68
2021/10/08 04:48:19;;;;;;;6.72;2.95;;;5.50;99.90;;;;;;5040341;28;20104;-68
2021/10/08 04:50:46;;;;;;;11.63;3.33;;;5.50;99.90;;;;;;5040530;28;20376;-68
2021/10/08 04:53:19;;;;;;;8.88;3.20;;;5.50;99.90;;;;;;5040919;28;20075;-68
2021/10/08 04:55:47;;;;;;;15.35;3.55;;;5.40;99.90;;;;;;5039955;28;20029;-68
2021/10/08 04:58:15;;;;;;;12.18;3.30;;;5.40;99.90;;;;;;5039436;28;20080;-68
2021/10/08 05:00:45;;;;;;;6.97;2.97;;;5.40;99.90;;;;;;5039391;28;20484;-68
2021/10/08 05:03:16;;;;;;;18.33;3.35;;;5.30;99.90;;;;;;5039362;28;20311;-68
2021/10/08 05:05:50;;;;;;;12.80;4.25;;;5.30;99.90;;;;;;5021718;28;20022;-67
2021/10/08 05:08:19;;;;;;;10.88;4.05;;;5.30;99.90;;;;;;5039411;28;20026;-68
2021/10/08 05:10:47;;;;;;;16.13;5.03;;;5.30;99.90;;;;;;5039491;28;20453;-68
2021/10/08 05:13:15;;;;;;;19.10;4.40;;;5.40;99.90;;;;;;5039072;28;20044;-68
2021/10/08 05:15:43;;;;;;;13.27;4.13;;;5.40;99.90;;;;;;5021504;28;20035;-68
2021/10/08 05:18:11;;;;;;;22.95;4.50;;;5.40;99.90;;;;;;5022195;28;20079;-68
2021/10/08 05:20:38;;;;;;;20.17;5.28;;;5.40;99.90;;;;;;5039935;28;20047;-68
2021/10/08 05:23:05;;;;;;;12.52;5.40;;;5.40;99.90;;;;;;5022184;28;20040;-68
2021/10/08 05:25:32;;;;;;;14.30;4.10;;;5.40;99.90;;;;;;5039841;28;20026;-68
2021/10/08 05:28:00;;;;;;;31.05;4.28;;;5.40;99.90;;;;;;5040150;28;20291;-68
2021/10/08 05:30:28;;;;;;;28.13;4.38;;;5.40;99.90;;;;;;5039972;28;20033;-67
2021/10/08 05:32:55;;;;;;;19.73;4.70;;;5.30;99.90;;;;;;5039699;28;20097;-68
2021/10/08 05:35:23;;;;;;;20.10;3.50;;;5.30;99.90;;;;;;5022025;28;20021;-72
2021/10/08 05:37:50;;;;;;;25.85;3.80;;;5.20;99.90;;;;;;5038848;28;20074;-72
2021/10/08 05:40:18;;;;;;;22.05;3.63;;;5.20;99.90;;;;;;5038677;28;20033;-72
2021/10/08 05:42:46;;;;;;;16.50;3.42;;;5.20;99.90;;;;;;5038501;28;20017;-72
2021/10/08 05:45:14;;;;;;;18.90;3.92;;;5.10;99.90;;;;;;5038561;28;20107;-72
2021/10/08 05:47:42;;;;;;;37.80;3.63;;;5.10;99.90;;;;;;5038689;28;20022;-71
2021/10/08 05:50:09;;;;;;;21.83;3.30;;;5.10;99.90;;;;;;5038417;28;20036;-70
2021/10/08 05:52:36;;;;;;;46.47;5.10;;;5.10;99.90;;;;;;5038987;28;20356;-70
2021/10/08 05:55:04;;;;;;;15.82;3.38;;;5.10;99.90;;;;;;5038368;28;20044;-70
2021/10/08 05:57:32;;;;;;;21.77;3.55;;;5.10;99.90;;;;;;5038475;28;20054;-71
2021/10/08 05:59:59;;;;;;;9.80;3.05;;;5.20;99.90;;;;;;5021058;28;20124;-71
2021/10/08 06:02:27;;;;;;;10.73;2.88;;;5.20;99.90;;;;;;5039163;28;20106;-70
2021/10/08 06:04:54;;;;;;;23.95;3.75;;;5.20;99.90;;;;;;5039510;28;20030;-69
2021/10/08 06:07:22;;;;;;;38.60;3.92;;;5.30;99.90;;;;;;5021443;28;20032;-69
2021/10/08 06:09:49;;;;;;;22.40;3.20;;;5.30;99.90;;;;;;5039189;28;20108;-69
2021/10/08 06:12:16;;;;;;;57.00;5.97;;;5.30;99.90;;;;;;5039659;28;20390;-70
2021/10/08 06:14:44;;;;;;;19.55;3.92;;;5.30;99.90;;;;;;5038841;28;20340;-70
2021/10/08 06:17:11;;;;;;;28.55;3.17;;;5.40;99.90;;;;;;5039379;28;20040;-69
2021/10/08 06:19:40;;;;;;;34.58;2.83;;;5.40;99.90;;;;;;5038821;28;20087;-67
2021/10/08 06:22:14;;;;;;;10.63;2.80;;;5.40;99.90;;;;;;5037955;28;20441;-67
2021/10/08 06:24:42;;;;;;;22.65;3.55;;;5.50;99.90;;;;;;5038002;28;20047;-67
2021/10/08 06:27:10;;;;;;;20.02;3.10;;;5.50;99.90;;;;;;5037736;28;20075;-68
2021/10/08 06:29:38;;;;;;;10.88;2.97;;;5.60;99.90;;;;;;5037391;28;20042;-67
2021/10/08 06:32:09;;;;;;;19.00;3.90;;;5.60;99.90;;;;;;5038412;28;20274;-68
2021/10/08 06:34:37;;;;;;;5.82;2.53;;;5.60;99.90;;;;;;5019932;28;20371;-69
2021/10/08 06:37:05;;;;;;;8.02;2.55;;;5.70;99.90;;;;;;5019942;28;20425;-69
2021/10/08 06:39:32;;;;;;;9.10;3.38;;;5.70;99.90;;;;;;5019889;28;20032;-68
2021/10/08 06:42:01;;;;;;;18.27;2.83;;;5.80;99.90;;;;;;5038554;28;20033;-68
2021/10/08 06:44:29;;;;;;;16.80;2.65;;;5.80;99.90;;;;;;5038253;28;20349;-68
2021/10/08 06:47:00;;;;;;;9.30;2.20;;;5.80;99.90;;;;;;5038284;28;20053;-67
2021/10/08 06:49:28;;;;;;;16.05;2.65;;;5.90;99.90;;;;;;5038046;28;20120;-69
2021/10/08 06:51:55;;;;;;;25.15;3.13;;;6.00;99.90;;;;;;5038310;28;20026;-67
2021/10/08 06:54:23;;;;;;;5.90;3.17;;;6.10;99.90;;;;;;5038173;28;20021;-67
2021/10/08 06:56:50;;;;;;;6.93;3.03;;;6.20;99.90;;;;;;5038066;28;20418;-67
2021/10/08 06:59:17;;;;;;;13.43;3.90;;;6.20;99.90;;;;;;5038095;28;20078;-68
2021/10/08 07:01:44;;;;;;;7.35;3.10;;;6.30;99.90;;;;;;5019983;28;20022;-68
2021/10/08 07:04:12;;;;;;;13.55;3.38;;;6.30;99.90;;;;;;5036910;28;20025;-68
2021/10/08 07:06:40;;;;;;;23.92;4.30;;;6.40;99.90;;;;;;5037072;28;20033;-67
2021/10/08 07:09:08;;;;;;;42.30;5.15;;;6.50;99.90;;;;;;5036998;28;20030;-67
2021/10/08 07:11:36;;;;;;;23.88;6.43;;;6.60;99.90;;;;;;5036953;28;20418;-67
2021/10/08 07:14:03;;;;;;;27.08;5.45;;;6.60;99.90;;;;;;5036918;28;20025;-67
2021/10/08 07:16:30;;;;;;;21.27;4.20;;;6.70;99.90;;;;;;5037378;28;20025;-67
2021/10/08 07:19:04;;;;;;;25.05;3.92;;;6.70;99.90;;;;;;5037059;28;20032;-67
2021/10/08 07:21:34;;;;;;;18.42;3.35;;;6.80;99.90;;;;;;5037490;28;20108;-68
2021/10/08 07:24:02;;;;;;;40.10;3.33;;;6.90;99.90;;;;;;5037663;28;20021;-67
2021/10/08 07:26:32;;;;;;;32.58;3.67;;;7.00;99.90;;;;;;5038348;28;20029;-68
2021/10/08 07:29:00;;;;;;;24.50;3.92;;;7.00;99.90;;;;;;5037659;28;20076;-68
2021/10/08 07:31:28;;;;;;;41.65;5.75;;;7.10;99.90;;;;;;5037729;28;20030;-68
2021/10/08 07:33:55;;;;;;;40.65;4.55;;;7.20;99.90;;;;;;5041549;28;20326;-68
2021/10/08 07:36:23;;;;;;;55.40;5.38;;;7.30;99.90;;;;;;5003967;28;20445;-68
2021/10/08 07:38:51;;;;;;;40.97;7.22;;;7.30;99.90;;;;;;5036860;28;20022;-68
2021/10/08 07:41:19;;;;;;;81.13;7.38;;;7.40;99.90;;;;;;5036525;28;20430;-68
2021/10/08 07:43:46;;;;;;;31.42;3.97;;;7.50;99.90;;;;;;5036977;28;20036;-68
2021/10/08 07:46:14;;;;;;;40.50;3.90;;;7.60;99.90;;;;;;5036737;28;20022;-68
2021/10/08 07:48:42;;;;;;;61.85;4.15;;;7.70;99.90;;;;;;5036302;28;20481;-68
2021/10/08 07:51:10;;;;;;;58.85;4.95;;;7.70;99.90;;;;;;5036612;28;20049;-68
2021/10/08 07:53:38;;;;;;;43.10;4.47;;;7.80;99.90;;;;;;5036926;28;20049;-68
2021/10/08 07:56:05;;;;;;;46.83;4.32;;;7.90;99.90;;;;;;5036863;28;20048;-68
2021/10/08 07:58:33;;;;;;;44.40;4.85;;;8.00;99.90;;;;;;5036284;28;20026;-67
2021/10/08 08:01:01;;;;;;;40.47;5.43;;;8.10;99.90;;;;;;5036955;28;20022;-67
2021/10/08 08:03:29;;;;;;;37.38;5.20;;;8.20;99.90;;;;;;5041391;28;20025;-67
2021/10/08 08:05:56;;;;;;;26.20;4.85;;;8.20;99.90;;;;;;5041700;28;20022;-67
2021/10/08 08:08:24;;;;;;;18.40;5.13;;;8.30;99.90;;;;;;5041232;28;20018;-67
2021/10/08 08:10:52;;;;;;;16.45;4.45;;;8.30;99.90;;;;;;5041326;28;20032;-67
2021/10/08 08:13:20;;;;;;;12.93;4.63;;;8.40;99.90;;;;;;5041306;28;20030;-68
2021/10/08 08:15:48;;;;;;;22.75;4.60;;;8.40;99.90;;;;;;5041251;28;20053;-67
2021/10/08 08:18:15;;;;;;;11.40;4.65;;;8.40;99.90;;;;;;5041093;28;20052;-67
2021/10/08 08:20:44;;;;;;;7.72;4.40;;;8.40;99.90;;;;;;5040255;28;20060;-67
2021/10/08 08:23:11;;;;;;;8.13;4.03;;;8.40;99.90;;;;;;5022698;28;20040;-67
2021/10/08 08:25:39;;;;;;;7.97;4.35;;;8.40;99.90;;;;;;5040724;28;20101;-67
2021/10/08 08:28:07;;;;;;;10.60;4.65;;;8.30;99.90;;;;;;5040289;28;20021;-68
2021/10/08 08:30:38;;;;;;;11.55;4.93;;;8.30;99.90;;;;;;5039765;28;20056;-67
2021/10/08 08:33:06;;;;;;;11.30;4.65;;;8.30;99.90;;;;;;5040520;28;20030;-68
2021/10/08 08:35:34;;;;;;;6.72;3.75;;;8.30;99.90;;;;;;5040442;28;20021;-68
2021/10/08 08:38:01;;;;;;;6.43;3.50;;;8.30;99.90;;;;;;5039835;28;20113;-68
2021/10/08 08:40:29;;;;;;;7.32;3.60;;;8.40;99.90;;;;;;5023176;28;20057;-68
2021/10/08 08:42:58;;;;;;;6.13;3.25;;;8.40;99.90;;;;;;5023067;28;20033;-68
2021/10/08 08:45:27;;;;;;;6.82;3.90;;;8.40;99.90;;;;;;5022919;28;20029;-68
2021/10/08 08:48:06;;;;;;;9.77;4.38;;;8.40;99.90;;;;;;5041086;28;20026;-68
2021/10/08 08:50:46;;;;;;;11.02;6.85;;;8.50;99.90;;;;;;5040726;28;20017;-68
2021/10/08 08:53:24;;;;;;;10.57;5.80;;;8.50;99.90;;;;;;5040404;28;20321;-67
2021/10/08 08:55:52;;;;;;;8.50;4.90;;;8.50;99.90;;;;;;5022792;28;20057;-67
2021/10/08 08:58:19;;;;;;;12.73;6.60;;;8.60;99.90;;;;;;5040430;28;20074;-68
2021/10/08 09:00:57;;;;;;;14.38;7.38;;;8.60;99.90;;;;;;5023071;28;20021;-67
2021/10/08 09:03:25;;;;;;;15.98;8.38;;;8.70;99.90;;;;;;5039317;28;20025;-68
2021/10/08 09:05:53;;;;;;;14.00;7.78;;;8.70;99.90;;;;;;5039895;28;20024;-67
2021/10/08 09:08:30;;;;;;;16.17;8.30;;;8.80;99.90;;;;;;5039383;28;20013;-68
2021/10/08 09:11:05;;;;;;;12.13;7.50;;;8.90;99.90;;;;;;5039745;28;20100;-67
2021/10/08 09:13:34;;;;;;;18.25;8.07;;;9.00;99.90;;;;;;5037998;28;20083;-67
2021/10/08 09:16:04;;;;;;;12.55;7.88;;;9.10;99.90;;;;;;5039106;28;20433;-67
2021/10/08 09:18:33;;;;;;;14.43;8.02;;;9.10;99.90;;;;;;5021426;28;20026;-68
2021/10/08 09:21:13;;;;;;;14.07;7.40;;;9.30;99.90;;;;;;5039422;28;20033;-68
2021/10/08 09:23:50;;;;;;;12.25;7.70;;;9.40;99.90;;;;;;5039611;28;20549;-68
2021/10/08 09:26:25;;;;;;;16.13;8.82;;;9.40;99.90;;;;;;5022441;28;20032;-68
2021/10/08 09:29:08;;;;;;;13.57;8.02;;;9.50;99.90;;;;;;5039584;28;20072;-68
2021/10/08 09:31:42;;;;;;;17.70;8.15;;;9.60;99.90;;;;;;5022961;28;20418;-68
2021/10/08 09:34:14;;;;;;;12.32;8.20;;;9.70;99.90;;;;;;5040191;28;20405;-68
2021/10/08 09:36:44;;;;;;;12.68;7.78;;;9.80;99.90;;;;;;5039786;28;20030;-68
2021/10/08 09:39:32;;;;;;;11.65;7.35;;;9.90;99.90;;;;;;5039360;28;20036;-67
2021/10/08 09:42:12;;;;;;;13.10;7.82;;;10.00;99.90;;;;;;5039361;28;20036;-68
2021/10/08 09:44:51;;;;;;;14.10;8.07;;;10.10;99.90;;;;;;5038797;28;20037;-68
2021/10/08 09:47:25;;;;;;;11.75;7.30;;;10.20;99.90;;;;;;5038524;28;20418;-67
2021/10/08 09:50:06;;;;;;;11.75;7.07;;;10.40;99.90;;;;;;5038313;28;20026;-67
2021/10/08 09:52:35;;;;;;;12.55;7.43;;;10.50;99.90;;;;;;5038424;28;20018;-67
2021/10/08 09:55:13;;;;;;;11.13;7.45;;;10.70;99.90;;;;;;5038464;28;20036;-67
2021/10/08 09:57:59;;;;;;;11.15;6.30;;;10.80;99.90;;;;;;5038374;28;20132;-68
2021/10/08 10:01:01;;;;;;;9.57;5.60;;;11.00;99.90;;;;;;5038817;28;20321;-68
2021/10/08 10:03:33;;;;;;;13.10;5.97;;;11.10;99.90;;;;;;5020751;28;20030;-68
2021/10/08 10:06:04;;;;;;;9.35;4.68;;;11.30;99.90;;;;;;5039030;28;20076;-67
2021/10/08 10:08:32;;;;;;;9.93;4.25;;;11.50;99.90;;;;;;5039486;28;20355;-68
2021/10/08 10:10:59;;;;;;;7.63;4.72;;;11.60;99.90;;;;;;5039013;28;20021;-67
2021/10/08 10:13:32;;;;;;;7.93;5.28;;;11.70;99.90;;;;;;5039124;28;20448;-68
2021/10/08 10:15:59;;;;;;;8.10;4.70;;;11.80;99.90;;;;;;5039402;28;20029;-69
2021/10/08 10:18:27;;;;;;;9.10;4.93;;;11.90;99.90;;;;;;5038862;28;20055;-68
2021/10/08 10:20:55;;;;;;;11.27;4.50;;;12.00;99.90;;;;;;5039085;28;20492;-67
2021/10/08 10:23:24;;;;;;;10.32;4.95;;;12.10;99.90;;;;;;5038379;28;20025;-68
2021/10/08 10:25:51;;;;;;;10.48;4.47;;;12.20;99.90;;;;;;5037679;28;20100;-67
2021/10/08 10:28:19;;;;;;;10.40;4.43;;;12.30;99.90;;;;;;5037959;28;20438;-69
2021/10/08 10:30:49;;;;;;;8.25;5.35;;;12.40;99.90;;;;;;5037631;28;20087;-69
2021/10/08 10:33:25;;;;;;;9.00;4.85;;;12.40;99.90;;;;;;5037765;28;20031;-67
2021/10/08 10:36:00;;;;;;;10.53;5.00;;;12.50;99.90;;;;;;5038188;28;20047;-68
2021/10/08 10:38:35;;;;;;;12.27;5.72;;;12.60;99.90;;;;;;5019965;28;20577;-65
2021/10/08 10:41:09;;;;;;;11.40;6.00;;;12.60;99.90;;;;;;5019947;28;20036;-64
2021/10/08 10:43:47;;;;;;;9.38;6.15;;;12.70;99.90;;;;;;5037930;28;20405;-65
2021/10/08 10:46:50;;;;;;;10.13;5.38;;;12.80;99.90;;;;;;5038070;28;20029;-64
2021/10/08 10:51:57;;;;;;;10.15;5.65;;;12.90;99.90;;;;;;5038389;28;20032;-65
2021/10/08 10:54:49;;;;;;;11.00;5.72;;;12.90;99.90;;;;;;5038055;28;20029;-65
2021/10/08 10:57:31;;;;;;;12.27;6.00;;;13.00;99.90;;;;;;5038949;28;20026;-65
2021/10/08 11:00:24;;;;;;;12.50;6.28;;;13.00;99.90;;;;;;5038595;28;20021;-67
2021/10/08 11:03:15;;;;;;;13.48;6.22;;;13.00;99.90;;;;;;5020457;28;20041;-67
2021/10/08 11:06:08;;;;;;;11.18;7.13;;;13.10;99.90;;;;;;5037062;28;20109;-67
2021/10/08 11:09:15;;;;;;;13.77;6.28;;;13.10;99.90;;;;;;5019407;28;20017;-67
2021/10/08 11:11:43;;;;;;;;;;;13.20;99.90;;;;;;5038041;28;20022;-65
2021/10/08 11:14:19;;;;;;;12.80;6.75;;;13.20;99.90;;;;;;5036717;28;19970;-65
2021/10/08 11:16:47;;;;;;;13.35;6.97;;;13.20;99.90;;;;;;5036853;28;20076;-65
2021/10/08 11:19:38;;;;;;;14.57;8.55;;;13.30;99.90;;;;;;5037213;28;20036;-65
2021/10/08 11:22:07;;;;;;;13.52;7.22;;;13.40;99.90;;;;;;5036844;28;20026;-66
2021/10/08 11:24:35;;;;;;;15.43;8.55;;;13.40;99.90;;;;;;5037199;28;20022;-66
2021/10/08 11:27:05;;;;;;;15.63;8.43;;;13.50;99.90;;;;;;5019953;28;20033;-66
2021/10/08 11:29:36;;;;;;;15.82;8.43;;;13.50;99.90;;;;;;5037190;28;20046;-66
2021/10/08 11:32:08;;;;;;;18.25;8.07;;;13.60;99.90;;;;;;5037778;28;20414;-66
2021/10/08 11:34:52;;;;;;;15.70;8.85;;;13.60;99.90;;;;;;5037459;28;20030;-66
2021/10/08 11:37:21;;;;;;;16.25;9.70;;;13.70;99.90;;;;;;5037642;28;20029;-66
2021/10/08 11:39:50;;;;;;;15.88;9.40;;;13.70;99.90;;;;;;5037708;28;20025;-66
2021/10/08 11:42:20;;;;;;;16.45;9.90;;;13.80;99.90;;;;;;5037529;28;20034;-66
2021/10/08 11:45:01;;;;;;;17.90;10.77;;;13.90;99.90;;;;;;5036979;28;20026;-66
2021/10/08 11:52:35;;;;;;;17.20;9.80;;;14.20;99.90;;;;;;5036593;28;20047;-66
2021/10/08 11:55:14;;;;;;;16.58;10.57;;;14.30;99.90;;;;;;5036938;28;20075;-66
2021/10/08 11:58:01;;;;;;;16.55;10.40;;;14.40;99.90;;;;;;5036989;28;20025;-66
2021/10/08 12:00:42;;;;;;;17.95;10.75;;;14.50;99.90;;;;;;5036858;28;20402;-68
2021/10/08 12:03:19;;;;;;;20.83;10.50;;;14.60;99.90;;;;;;5036303;28;20028;-66
2021/10/08 12:05:59;;;;;;;19.15;9.77;;;14.70;99.90;;;;;;5036261;28;20018;-66
2021/10/08 12:08:39;;;;;;;17.27;8.98;;;14.70;99.90;;;;;;5036941;28;20331;-66
2021/10/08 12:11:12;;;;;;;15.82;9.57;;;14.90;99.90;;;;;;5037818;28;20024;-66
2021/10/08 12:13:50;;;;;;;14.18;9.43;;;15.00;99.90;;;;;;5037182;28;20033;-66
2021/10/08 12:16:37;;;;;;;16.35;9.20;;;15.10;99.90;;;;;;5037139;28;20114;-66
2021/10/08 12:19:05;;;;;;;13.90;8.93;;;15.20;99.90;;;;;;5037349;28;20021;-66
2021/10/08 12:21:38;;;;;;;14.27;9.07;;;15.30;99.90;;;;;;5037339;28;20025;-66
2021/10/08 12:24:07;;;;;;;14.93;9.57;;;15.50;99.90;;;;;;5036927;28;20057;-66
2021/10/08 12:26:40;;;;;;;16.52;10.93;;;15.60;99.90;;;;;;5037231;28;20029;-66
2021/10/08 12:29:10;;;;;;;20.48;10.77;;;15.70;99.90;;;;;;5015182;28;20130;-66
2021/10/08 12:31:47;;;;;;;17.45;10.43;;;15.80;99.90;;;;;;5016364;28;20026;-66
2021/10/08 12:34:32;;;;;;;14.90;8.68;;;15.80;99.90;;;;;;5016250;28;20033;-66
2021/10/08 12:37:02;;;;;;;17.30;9.85;;;15.70;99.90;;;;;;5016402;28;20054;-66
2021/10/08 12:39:37;;;;;;;15.35;9.23;;;15.60;99.90;;;;;;5016567;28;20021;-66
2021/10/08 12:42:23;;;;;;;14.95;8.57;;;15.60;99.90;;;;;;5016807;28;20026;-66
2021/10/08 12:44:58;;;;;;;12.75;8.55;;;15.50;99.90;;;;;;5016989;28;20365;-66
2021/10/08 12:47:38;;;;;;;13.85;8.88;;;15.40;99.90;;;;;;5015387;28;20037;-66
2021/10/08 12:50:16;;;;;;;14.05;8.05;;;15.30;99.90;;;;;;5019900;28;20033;-66
2021/10/08 12:52:51;;;;;;;11.93;8.52;;;15.20;99.90;;;;;;5020834;28;20371;-66
2021/10/08 12:55:36;;;;;;;14.55;9.25;;;15.10;99.90;;;;;;5021265;28;20028;-66
2021/10/08 12:58:11;;;;;;;13.13;8.63;;;15.10;99.90;;;;;;5021390;28;20548;-66
2021/10/08 13:00:43;;;;;;;16.27;8.85;;;15.10;99.90;;;;;;5021147;28;20037;-66
2021/10/08 13:03:35;;;;;;;12.98;8.57;;;15.10;99.90;;;;;;5020967;28;20029;-66
2021/10/08 13:06:21;;;;;;;15.32;8.23;;;15.20;99.90;;;;;;5021073;28;20022;-66
2021/10/08 13:09:16;;;;;;;18.45;9.30;;;15.30;99.90;;;;;;5018997;28;20025;-66
2021/10/08 13:11:55;;;;;;;13.55;8.98;;;15.50;99.90;;;;;;5019544;28;20030;-66
2021/10/08 13:14:28;;;;;;;14.55;8.88;;;15.70;99.90;;;;;;5019968;28;20026;-66